createdAt,value
2022-11-16T00:00:28.158Z,99221.91
2022-11-16T00:03:33.396Z,99219.25
2022-11-16T00:06:37.403Z,99208.13
2022-11-16T00:09:40.817Z,99206.91
2022-11-16T00:12:43.933Z,99206.97
2022-11-16T00:15:57.166Z,99198.53
2022-11-16T00:19:04.234Z,99196.59
2022-11-16T00:22:07.365Z,99198.13
2022-11-16T00:25:11.329Z,99186.56
2022-11-16T00:28:14.733Z,99184.16
2022-11-16T00:31:17.611Z,99180.72
2022-11-16T00:34:22.119Z,99176.50
2022-11-16T00:37:24.998Z,99160.69
2022-11-16T00:40:28.263Z,99160.31
2022-11-16T00:43:31.134Z,99159.56
2022-11-16T00:46:34.358Z,99158.03
2022-11-16T00:49:38.601Z,99146.53
2022-11-16T00:52:41.724Z,99154.19
2022-11-16T00:55:46.087Z,99150.72
2022-11-16T00:58:50.179Z,99137.97
2022-11-16T01:01:53.145Z,99138.78
2022-11-16T01:04:57.767Z,99132.97
2022-11-16T01:08:00.740Z,99136.03
2022-11-16T01:11:24.681Z,99135.72
2022-11-16T01:14:27.492Z,99123.75
2022-11-16T01:17:30.650Z,99112.53
2022-11-16T01:20:33.600Z,99114.12
2022-11-16T01:23:36.826Z,99107.63
2022-11-16T01:26:40.127Z,99109.09
2022-11-16T01:29:43.619Z,99112.22
2022-11-16T01:32:46.553Z,99113.25
2022-11-16T01:35:50.294Z,99105.12
2022-11-16T01:38:53.295Z,99104.75
2022-11-16T01:41:57.148Z,99103.56
2022-11-16T01:45:19.354Z,99097.44
2022-11-16T01:48:26.736Z,99089.06
2022-11-16T01:51:30.260Z,99078.25
2022-11-16T01:54:37.113Z,99072.94
2022-11-16T01:57:43.076Z,99064.09
2022-11-16T02:00:46.556Z,99060.16
2022-11-16T02:03:50.720Z,99065.19
2022-11-16T02:06:59.940Z,99058.28
2022-11-16T02:10:16.105Z,99054.38
2022-11-16T02:13:46.280Z,99047.03
2022-11-16T02:17:06.310Z,99047.41
2022-11-16T02:20:54.536Z,99052.75
2022-11-16T02:24:19.390Z,99052.44
2022-11-16T02:27:30.746Z,99047.41
2022-11-16T02:30:35.862Z,99043.19
2022-11-16T02:33:41.430Z,99038.59
2022-11-16T02:36:47.423Z,99036.97
2022-11-16T02:39:54.953Z,99040.00
2022-11-16T02:43:03.897Z,99033.97
2022-11-16T02:46:11.802Z,99027.72
2022-11-16T02:49:18.574Z,99014.59
2022-11-16T02:52:22.884Z,99014.59
2022-11-16T02:55:27.816Z,99003.53
2022-11-16T02:58:31.568Z,99008.09
2022-11-16T03:01:38.600Z,99006.94
2022-11-16T03:04:44.439Z,98996.09
2022-11-16T03:07:58.397Z,98995.03
2022-11-16T03:11:23.319Z,99002.75
2022-11-16T03:14:42.331Z,98995.78
2022-11-16T03:17:48.327Z,98985.38
2022-11-16T03:20:54.269Z,98979.28
2022-11-16T03:23:57.801Z,98979.56
2022-11-16T03:27:07.299Z,98975.66
2022-11-16T03:30:10.269Z,98973.75
2022-11-16T03:33:18.699Z,98973.22
2022-11-16T03:36:33.749Z,98965.31
2022-11-16T03:39:39.643Z,98965.63
2022-11-16T03:42:45.035Z,98958.72
2022-11-16T03:45:50.508Z,98954.84
2022-11-16T03:48:59.525Z,98955.56
2022-11-16T03:52:03.052Z,98955.53
2022-11-16T03:55:08.355Z,98959.41
2022-11-16T03:58:13.247Z,98956.66
2022-11-16T04:01:16.435Z,98949.03
2022-11-16T04:04:40.562Z,98944.09
2022-11-16T04:08:03.527Z,98941.47
2022-11-16T04:11:30.832Z,98931.41
2022-11-16T04:14:52.457Z,98934.13
2022-11-16T04:18:15.126Z,98928.34
2022-11-16T04:21:44.120Z,98924.91
2022-11-16T04:24:51.032Z,98922.25
2022-11-16T04:28:13.347Z,98918.69
2022-11-16T04:31:36.395Z,98913.97
2022-11-16T04:34:58.258Z,98917.50
2022-11-16T04:38:02.212Z,98900.91
2022-11-16T04:41:05.561Z,98900.12
2022-11-16T04:44:08.898Z,98912.44
2022-11-16T04:47:12.959Z,98911.56
2022-11-16T04:50:17.952Z,98911.63
2022-11-16T04:53:23.435Z,98910.91
2022-11-16T04:56:29.231Z,98912.91
2022-11-16T04:59:32.341Z,98909.44
2022-11-16T05:02:36.695Z,98892.88
2022-11-16T05:05:39.668Z,98895.56
2022-11-16T05:08:43.150Z,98889.78
2022-11-16T05:11:46.150Z,98892.12
2022-11-16T05:14:49.651Z,98895.94
2022-11-16T05:17:55.043Z,98898.28
2022-11-16T05:21:01.782Z,98894.44
2022-11-16T05:24:24.407Z,98885.59
2022-11-16T05:27:29.433Z,98890.22
2022-11-16T05:30:33.563Z,98879.03
2022-11-16T05:33:37.693Z,98880.97
2022-11-16T05:36:40.684Z,98877.94
2022-11-16T05:39:44.577Z,98878.69
2022-11-16T05:42:49.351Z,98874.09
2022-11-16T05:45:53.524Z,98859.09
2022-11-16T05:48:56.945Z,98860.19
2022-11-16T05:52:00.601Z,98853.97
2022-11-16T05:55:04.623Z,98858.25
2022-11-16T05:58:09.570Z,98857.47
2022-11-16T06:01:13.563Z,98849.34
2022-11-16T06:04:24.158Z,98845.06
2022-11-16T06:07:27.910Z,98848.22
2022-11-16T06:10:32.123Z,98838.53
2022-11-16T06:13:35.567Z,98840.88
2022-11-16T06:16:39.114Z,98846.59
2022-11-16T06:19:42.484Z,98843.16
2022-11-16T06:22:45.827Z,98846.28
2022-11-16T06:25:54.231Z,98847.00
2022-11-16T06:28:58.508Z,98854.25
2022-11-16T06:32:03.141Z,98860.09
2022-11-16T06:35:06.959Z,98848.22
2022-11-16T06:38:10.421Z,98865.56
2022-11-16T06:41:13.786Z,98858.19
2022-11-16T06:44:16.990Z,98851.25
2022-11-16T06:47:21.353Z,98847.88
2022-11-16T06:50:24.432Z,98835.53
2022-11-16T06:53:29.659Z,98838.31
2022-11-16T06:56:35.264Z,98843.34
2022-11-16T06:59:39.895Z,98832.97
2022-11-16T07:02:44.631Z,98832.53
2022-11-16T07:05:49.078Z,98824.88
2022-11-16T07:08:52.417Z,98819.75
2022-11-16T07:11:57.949Z,98814.00
2022-11-16T07:15:00.884Z,98818.31
2022-11-16T07:18:08.530Z,98827.84
2022-11-16T07:21:15.286Z,98821.75
2022-11-16T07:24:19.057Z,98826.00
2022-11-16T07:27:22.981Z,98816.81
2022-11-16T07:30:26.893Z,98811.81
2022-11-16T07:33:30.434Z,98812.28
2022-11-16T07:36:36.484Z,98823.84
2022-11-16T07:39:39.396Z,98818.09
2022-11-16T07:42:45.511Z,98815.06
2022-11-16T07:45:49.488Z,98820.47
2022-11-16T07:48:52.698Z,98803.50
2022-11-16T07:51:58.616Z,98821.22
2022-11-16T07:55:06.148Z,98809.66
2022-11-16T07:58:09.178Z,98798.91
2022-11-16T08:01:15.014Z,98795.44
2022-11-16T08:04:18.844Z,98780.03
2022-11-16T08:07:21.966Z,98781.19
2022-11-16T08:10:26.125Z,98780.44
2022-11-16T08:13:32.227Z,98778.91
2022-11-16T08:16:35.628Z,98781.19
2022-11-16T08:19:40.371Z,98777.34
2022-11-16T08:22:45.374Z,98777.72
2022-11-16T08:25:48.306Z,98783.50
2022-11-16T08:28:53.919Z,98791.56
2022-11-16T08:31:59.228Z,98791.22
2022-11-16T08:35:03.746Z,98782.34
2022-11-16T08:38:06.648Z,98790.84
2022-11-16T08:41:10.172Z,98788.91
2022-11-16T08:44:13.294Z,98778.91
2022-11-16T08:47:19.420Z,98775.06
2022-11-16T08:50:22.525Z,98779.34
2022-11-16T08:53:26.095Z,98774.31
2022-11-16T08:56:30.346Z,98766.22
2022-11-16T08:59:33.632Z,98766.22
2022-11-16T09:02:37.482Z,98759.66
2022-11-16T09:05:42.655Z,98756.16
2022-11-16T09:08:46.732Z,98746.50
2022-11-16T09:11:52.612Z,98734.53
2022-11-16T09:14:55.502Z,98741.88
2022-11-16T09:17:58.697Z,98739.94
2022-11-16T09:21:01.531Z,98749.59
2022-11-16T09:24:06.308Z,98755.00
2022-11-16T09:27:09.229Z,98753.47
2022-11-16T09:30:13.821Z,98744.97
2022-11-16T09:33:16.838Z,98739.56
2022-11-16T09:36:21.470Z,98743.41
2022-11-16T09:39:30.937Z,98737.63
2022-11-16T09:43:01.190Z,98732.59
2022-11-16T09:46:32.358Z,98734.16
2022-11-16T09:49:42.083Z,98729.50
2022-11-16T09:52:46.852Z,98733.00
2022-11-16T09:55:53.716Z,98717.91
2022-11-16T09:59:01.894Z,98717.12
2022-11-16T10:02:23.489Z,98717.50
2022-11-16T10:05:31.808Z,98717.91
2022-11-16T10:08:49.568Z,98714.03
2022-11-16T10:12:01.310Z,98707.88
2022-11-16T10:15:28.458Z,98711.31
2022-11-16T10:18:48.311Z,98709.00
2022-11-16T10:22:30.253Z,98699.75
2022-11-16T10:25:39.244Z,98698.97
2022-11-16T10:29:01.307Z,98687.69
2022-11-16T10:32:09.951Z,98680.75
2022-11-16T10:35:12.752Z,98680.69
2022-11-16T10:38:19.448Z,98672.91
2022-11-16T10:41:37.108Z,98662.41
2022-11-16T10:45:12.068Z,98654.94
2022-11-16T10:48:47.585Z,98658.03
2022-11-16T10:51:50.784Z,98653.31
2022-11-16T10:54:53.908Z,98656.69
2022-11-16T10:58:06.072Z,98664.38
2022-11-16T11:01:10.699Z,98647.66
2022-11-16T11:04:22.221Z,98637.66
2022-11-16T11:07:40.347Z,98640.94
2022-11-16T11:10:43.554Z,98629.69
2022-11-16T11:13:46.475Z,98631.53
2022-11-16T11:16:53.460Z,98629.87
2022-11-16T11:20:00.020Z,98624.53
2022-11-16T11:23:12.995Z,98619.91
2022-11-16T11:26:38.839Z,98611.34
2022-11-16T11:29:44.967Z,98611.78
2022-11-16T11:32:48.344Z,98602.97
2022-11-16T11:36:04.674Z,98598.81
2022-11-16T11:39:35.937Z,98598.97
2022-11-16T11:42:44.154Z,98593.25
2022-11-16T11:45:57.050Z,98587.56
2022-11-16T11:49:05.228Z,98579.88
2022-11-16T11:52:19.821Z,98584.56
2022-11-16T11:55:23.354Z,98588.53
2022-11-16T11:58:31.562Z,98588.59
2022-11-16T12:01:44.514Z,98592.81
2022-11-16T12:04:57.306Z,98587.75
2022-11-16T12:08:31.122Z,98591.31
2022-11-16T12:11:37.220Z,98591.75
2022-11-16T12:14:59.299Z,98589.06
2022-11-16T12:18:13.242Z,98591.75
2022-11-16T12:21:23.073Z,98589.13
2022-11-16T12:24:56.857Z,98582.16
2022-11-16T12:28:34.077Z,98582.94
2022-11-16T12:32:06.104Z,98581.06
2022-11-16T12:35:24.686Z,98583.00
2022-11-16T12:38:30.742Z,98570.25
2022-11-16T12:41:56.900Z,98565.59
2022-11-16T12:45:18.665Z,98564.06
2022-11-16T12:48:22.212Z,98558.25
2022-11-16T12:51:32.253Z,98561.34
2022-11-16T12:55:11.023Z,98552.09
2022-11-16T12:58:10.839Z,98554.78
2022-11-16T13:01:23.015Z,98553.69
2022-11-16T13:04:29.857Z,98551.75
2022-11-16T13:07:41.315Z,98549.06
2022-11-16T13:10:47.199Z,98548.31
2022-11-16T13:13:53.825Z,98549.09
2022-11-16T13:16:58.313Z,98546.00
2022-11-16T13:20:33.151Z,98544.06
2022-11-16T13:24:18.710Z,98544.84
2022-11-16T13:27:38.358Z,98554.50
2022-11-16T13:31:00.971Z,98561.84
2022-11-16T13:34:07.423Z,98561.84
2022-11-16T13:37:39.735Z,98563.38
2022-11-16T13:40:42.665Z,98565.34
2022-11-16T13:43:49.275Z,98561.84
2022-11-16T13:47:05.096Z,98556.84
2022-11-16T13:50:17.817Z,98563.03
2022-11-16T13:54:38.025Z,98558.75
2022-11-16T13:56:50.342Z,98556.06
2022-11-16T14:00:03.952Z,98562.66
2022-11-16T14:03:15.890Z,98556.44
2022-11-16T14:06:22.368Z,98556.84
2022-11-16T14:09:46.273Z,98561.84
2022-11-16T14:12:54.450Z,98556.44
2022-11-16T14:16:19.746Z,98553.37
2022-11-16T14:19:47.457Z,98552.59
2022-11-16T14:23:21.341Z,98547.53
2022-11-16T14:26:47.126Z,98546.00
2022-11-16T14:30:16.312Z,98550.28
2022-11-16T14:33:31.571Z,98543.69
2022-11-16T14:36:43.784Z,98541.38
2022-11-16T14:39:47.079Z,98541.00
2022-11-16T14:43:16.466Z,98534.81
2022-11-16T14:46:26.829Z,98529.03
2022-11-16T14:49:32.138Z,98531.34
2022-11-16T14:52:40.773Z,98530.94
2022-11-16T14:55:46.079Z,98524.81
2022-11-16T14:58:54.488Z,98525.19
2022-11-16T15:01:58.072Z,98521.31
2022-11-16T15:05:01.608Z,98524.81
2022-11-16T15:08:14.030Z,98518.62
2022-11-16T15:11:59.604Z,98515.53
2022-11-16T15:15:29.784Z,98510.53
2022-11-16T15:18:32.870Z,98508.22
2022-11-16T15:21:35.612Z,98513.63
2022-11-16T15:24:38.899Z,98505.91
2022-11-16T15:27:42.224Z,98502.81
2022-11-16T15:30:48.534Z,98504.38
2022-11-16T15:33:52.139Z,98498.19
2022-11-16T15:36:55.500Z,98502.81
2022-11-16T15:39:59.123Z,98499.72
2022-11-16T15:43:04.961Z,98506.31
2022-11-16T15:46:08.753Z,98495.09
2022-11-16T15:49:28.066Z,98486.63
2022-11-16T15:52:45.233Z,98494.72
2022-11-16T15:55:50.232Z,98501.69
2022-11-16T15:58:55.079Z,98494.31
2022-11-16T16:01:58.253Z,98497.06
2022-11-16T16:05:02.834Z,98491.25
2022-11-16T16:08:06.658Z,98495.12
2022-11-16T16:11:11.139Z,98505.16
2022-11-16T16:14:28.925Z,98507.84
2022-11-16T16:17:32.573Z,98502.06
2022-11-16T16:20:36.265Z,98501.69
2022-11-16T16:23:48.306Z,98492.41
2022-11-16T16:26:51.347Z,98493.56
2022-11-16T16:29:57.311Z,98486.63
2022-11-16T16:33:00.577Z,98488.94
2022-11-16T16:36:04.415Z,98492.03
2022-11-16T16:39:08.635Z,98485.44
2022-11-16T16:42:13.948Z,98488.94
2022-11-16T16:45:44.583Z,98493.16
2022-11-16T16:48:47.933Z,98496.25
2022-11-16T16:51:50.737Z,98485.84
2022-11-16T16:54:53.898Z,98488.53
2022-11-16T16:57:58.343Z,98484.28
2022-11-16T17:01:05.002Z,98486.19
2022-11-16T17:04:08.267Z,98486.22
2022-11-16T17:07:11.493Z,98492.00
2022-11-16T17:10:15.338Z,98498.19
2022-11-16T17:13:18.574Z,98492.00
2022-11-16T17:16:22.471Z,98483.53
2022-11-16T17:19:25.596Z,98484.69
2022-11-16T17:22:28.751Z,98485.09
2022-11-16T17:25:33.703Z,98487.38
2022-11-16T17:28:36.698Z,98485.50
2022-11-16T17:31:44.250Z,98488.97
2022-11-16T17:34:47.397Z,98479.72
2022-11-16T17:37:51.802Z,98484.31
2022-11-16T17:41:06.263Z,98488.56
2022-11-16T17:44:10.089Z,98484.72
2022-11-16T17:47:13.338Z,98478.56
2022-11-16T17:50:18.214Z,98479.31
2022-11-16T17:53:21.169Z,98471.59
2022-11-16T17:56:26.965Z,98471.97
2022-11-16T17:59:30.787Z,98467.00
2022-11-16T18:02:34.287Z,98465.81
2022-11-16T18:05:37.892Z,98462.72
2022-11-16T18:12:00.671Z,98461.22
2022-11-16T18:15:27.618Z,98462.34
2022-11-16T18:18:27.768Z,98458.50
2022-11-16T18:21:31.857Z,98467.00
2022-11-16T18:24:35.967Z,98461.97
2022-11-16T18:27:39.419Z,98453.84
2022-11-16T18:30:43.348Z,98455.78
2022-11-16T18:33:48.071Z,98450.00
2022-11-16T18:36:52.097Z,98446.56
2022-11-16T18:39:55.821Z,98452.31
2022-11-16T18:42:59.461Z,98450.41
2022-11-16T18:46:02.892Z,98455.03
2022-11-16T18:49:06.887Z,98454.66
2022-11-16T18:52:11.167Z,98457.34
2022-11-16T18:55:16.310Z,98461.19
2022-11-16T18:58:48.547Z,98469.69
2022-11-16T19:01:45.159Z,98467.75
2022-11-16T19:04:48.552Z,98462.72
2022-11-16T19:07:52.038Z,98461.19
2022-11-16T19:10:55.529Z,98460.81
2022-11-16T19:14:07.996Z,98468.16
2022-11-16T19:17:14.720Z,98474.31
2022-11-16T19:20:18.466Z,98475.09
2022-11-16T19:23:22.044Z,98470.84
2022-11-16T19:26:27.330Z,98462.75
2022-11-16T19:29:30.760Z,98454.66
2022-11-16T19:32:35.684Z,98460.06
2022-11-16T19:35:39.999Z,98455.81
2022-11-16T19:38:45.063Z,98452.34
2022-11-16T19:41:48.395Z,98441.53
2022-11-16T19:44:52.082Z,98446.94
2022-11-16T19:47:57.121Z,98444.25
2022-11-16T19:51:06.739Z,98436.16
2022-11-16T19:54:13.050Z,98426.50
2022-11-16T19:57:20.915Z,98432.66
2022-11-16T20:00:25.023Z,98439.22
2022-11-16T20:03:28.704Z,98439.25
2022-11-16T20:06:33.940Z,98445.00
2022-11-16T20:09:37.440Z,98441.53
2022-11-16T20:12:40.442Z,98438.81
2022-11-16T20:15:43.985Z,98444.25
2022-11-16T20:18:49.032Z,98448.84
2022-11-16T20:21:53.500Z,98449.25
2022-11-16T20:24:56.637Z,98446.16
2022-11-16T20:28:01.517Z,98439.22
2022-11-16T20:31:08.395Z,98444.25
2022-11-16T20:34:14.874Z,98451.56
2022-11-16T20:37:17.752Z,98449.62
2022-11-16T20:40:21.466Z,98451.56
2022-11-16T20:43:25.165Z,98441.13
2022-11-16T20:46:30.991Z,98431.84
2022-11-16T20:49:34.594Z,98434.56
2022-11-16T20:52:42.411Z,98433.41
2022-11-16T20:55:47.179Z,98427.62
2022-11-16T20:58:50.484Z,98430.34
2022-11-16T21:01:54.849Z,98426.88
2022-11-16T21:05:00.494Z,98426.13
2022-11-16T21:08:03.776Z,98416.84
2022-11-16T21:11:15.252Z,98419.53
2022-11-16T21:14:19.774Z,98424.56
2022-11-16T21:17:22.973Z,98425.72
2022-11-16T21:20:27.973Z,98421.47
2022-11-16T21:23:33.671Z,98429.19
2022-11-16T21:26:37.425Z,98436.50
2022-11-16T21:29:40.528Z,98427.25
2022-11-16T21:32:43.396Z,98433.81
2022-11-16T21:35:46.639Z,98427.28
2022-11-16T21:38:50.069Z,98431.13
2022-11-16T21:41:53.747Z,98410.69
2022-11-16T21:44:56.555Z,98405.28
2022-11-16T21:48:00.863Z,98394.50
2022-11-16T21:51:06.032Z,98405.28
2022-11-16T21:54:09.186Z,98396.81
2022-11-16T21:57:17.460Z,98396.06
2022-11-16T22:00:20.947Z,98384.47
2022-11-16T22:03:26.248Z,98375.22
2022-11-16T22:06:48.708Z,98360.50
2022-11-16T22:09:52.018Z,98358.59
2022-11-16T22:12:55.064Z,98362.44
2022-11-16T22:15:58.272Z,98356.66
2022-11-16T22:19:01.174Z,98350.09
2022-11-16T22:22:04.358Z,98348.94
2022-11-16T22:25:08.827Z,98348.56
2022-11-16T22:28:20.707Z,98339.28
2022-11-16T22:31:24.399Z,98349.69
2022-11-16T22:34:27.525Z,98378.66
2022-11-16T22:37:31.125Z,98379.44
2022-11-16T22:40:35.913Z,98381.00
2022-11-16T22:43:39.355Z,98376.34
2022-11-16T22:46:43.525Z,98384.44
2022-11-16T22:49:46.259Z,98390.22
2022-11-16T22:52:49.296Z,98382.91
2022-11-16T22:55:51.927Z,98375.59
2022-11-16T22:58:55.201Z,98382.94
2022-11-16T23:01:58.040Z,98385.63
2022-11-16T23:05:02.665Z,98381.00
2022-11-16T23:08:06.211Z,98365.97
2022-11-16T23:11:39.172Z,98362.87
2022-11-16T23:15:00.627Z,98362.50
2022-11-16T23:18:03.918Z,98365.19
2022-11-16T23:21:25.422Z,98365.22
2022-11-16T23:24:47.052Z,98373.69
2022-11-16T23:28:04.554Z,98371.38
2022-11-16T23:31:08.490Z,98374.84
2022-11-16T23:34:11.476Z,98383.31
2022-11-16T23:37:15.319Z,98391.41
2022-11-16T23:40:18.276Z,98396.03
2022-11-16T23:43:40.209Z,98388.72
2022-11-16T23:46:43.614Z,98382.94
2022-11-16T23:49:46.749Z,98398.75
2022-11-16T23:52:49.567Z,98393.69
2022-11-16T23:55:53.609Z,98392.97
2022-11-16T23:58:58.595Z,98397.56
